Time;durP1;ratioP1;P1;durP2;ratioP2;P2;SDS_P1;SDS_P2;PMS_P1;PMS_P2;Temp;Humidity;BMP_temperature;BMP_pressure;BME280_temperature;BME280_humidity;BME280_pressure;Samples;Min_cycle;Max_cycle;Signal;HPM_P1;HPM_P2
2023/05/18 00:00:46;;;;;;;5.43;2.50;;;;;;;;;;5072894;28;20192;-55
2023/05/18 00:03:12;;;;;;;11.67;2.40;;;;;;;;;;5073265;28;20471;-55
2023/05/18 00:05:38;;;;;;;4.43;2.33;;;;;;;;;;5071145;28;20211;-56
2023/05/18 00:08:04;;;;;;;5.23;2.50;;;;;;;;;;5071789;28;20264;-56
2023/05/18 00:10:30;;;;;;;4.73;2.83;;;;;;;;;;5073246;28;20665;-55
2023/05/18 00:12:57;;;;;;;4.47;2.50;;;;;;;;;;5073322;28;20253;-55
2023/05/18 00:15:23;;;;;;;4.50;2.23;;;;;;;;;;5072897;28;20246;-55
2023/05/18 00:17:52;;;;;;;8.17;3.10;;;;;;;;;;5071402;28;20657;-55
2023/05/18 00:20:20;;;;;;;4.87;2.40;;;;;;;;;;5072856;28;20690;-56
2023/05/18 00:22:47;;;;;;;6.03;2.60;;;;;;;;;;5073013;28;20200;-55
2023/05/18 00:25:12;;;;;;;5.57;2.97;;;;;;;;;;5072895;28;20688;-55
2023/05/18 00:27:38;;;;;;;7.30;3.17;;;;;;;;;;5072969;28;20294;-55
2023/05/18 00:30:07;;;;;;;5.53;2.97;;;;;;;;;;5073020;28;20226;-55
2023/05/18 00:32:33;;;;;;;5.47;2.93;;;;;;;;;;5072863;28;20265;-55
2023/05/18 00:34:59;;;;;;;3.73;2.43;;;;;;;;;;5072525;28;20701;-55
2023/05/18 00:37:25;;;;;;;10.30;2.87;;;;;;;;;;5072626;28;20210;-55
2023/05/18 00:39:51;;;;;;;5.80;2.60;;;;;;;;;;5072723;28;20564;-55
2023/05/18 00:42:17;;;;;;;3.33;2.37;;;;;;;;;;5072752;28;20299;-55
2023/05/18 00:44:43;;;;;;;2.93;2.60;;;;;;;;;;5072434;28;20487;-55
2023/05/18 00:47:10;;;;;;;5.23;2.30;;;;;;;;;;5072895;28;20662;-55
2023/05/18 00:49:36;;;;;;;3.20;2.27;;;;;;;;;;5072598;28;20299;-55
2023/05/18 00:52:03;;;;;;;5.37;2.60;;;;;;;;;;5072646;28;20714;-55
2023/05/18 00:54:29;;;;;;;7.00;3.00;;;;;;;;;;5072239;28;20749;-55
2023/05/18 00:56:55;;;;;;;5.03;2.57;;;;;;;;;;5072348;28;20433;-55
2023/05/18 00:59:21;;;;;;;4.63;2.43;;;;;;;;;;5072616;28;20211;-55
2023/05/18 01:01:47;;;;;;;4.50;2.60;;;;;;;;;;5072180;28;20203;-55
2023/05/18 01:04:15;;;;;;;6.00;2.50;;;;;;;;;;5072266;28;20302;-55
2023/05/18 01:06:41;;;;;;;5.97;2.27;;;;;;;;;;5072041;28;20704;-55
2023/05/18 01:09:08;;;;;;;4.13;2.47;;;;;;;;;;5071891;28;20752;-56
2023/05/18 01:11:39;;;;;;;4.03;2.53;;;;;;;;;;5072233;28;20195;-55
2023/05/18 01:14:10;;;;;;;4.70;2.33;;;;;;;;;;5072302;28;20542;-55
2023/05/18 01:16:46;;;;;;;5.27;2.40;;;;;;;;;;5070965;28;20732;-55
2023/05/18 01:19:23;;;;;;;5.70;3.03;;;;;;;;;;5072153;28;20195;-55
2023/05/18 01:21:57;;;;;;;5.33;2.80;;;;;;;;;;5072022;28;20286;-55
2023/05/18 01:24:27;;;;;;;5.27;2.30;;;;;;;;;;5072059;28;20426;-55
2023/05/18 01:26:56;;;;;;;5.13;3.20;;;;;;;;;;5071856;28;20206;-55
2023/05/18 01:29:25;;;;;;;5.40;2.40;;;;;;;;;;5072103;28;20200;-55
2023/05/18 01:31:51;;;;;;;4.90;2.77;;;;;;;;;;5071828;28;20203;-55
2023/05/18 01:34:17;;;;;;;4.80;2.37;;;;;;;;;;5071761;28;20593;-55
2023/05/18 01:36:43;;;;;;;3.77;2.30;;;;;;;;;;5071512;28;20235;-55
2023/05/18 01:39:09;;;;;;;7.50;2.67;;;;;;;;;;5071701;28;20567;-55
2023/05/18 01:41:38;;;;;;;4.93;2.40;;;;;;;;;;5071792;28;20463;-55
2023/05/18 01:44:14;;;;;;;4.77;2.90;;;;;;;;;;5071643;28;20191;-56
2023/05/18 01:46:45;;;;;;;3.03;2.40;;;;;;;;;;5071583;28;20208;-56
2023/05/18 01:49:16;;;;;;;4.90;2.30;;;;;;;;;;5071508;28;20491;-56
2023/05/18 01:51:44;;;;;;;5.73;2.40;;;;;;;;;;5071448;28;20430;-56
2023/05/18 01:54:11;;;;;;;4.30;2.53;;;;;;;;;;5071479;28;20366;-56
2023/05/18 01:56:37;;;;;;;5.80;2.57;;;;;;;;;;5071672;28;20226;-56
2023/05/18 01:59:03;;;;;;;4.03;2.40;;;;;;;;;;5071477;28;20892;-56
2023/05/18 02:01:31;;;;;;;6.27;3.53;;;;;;;;;;5071429;28;20246;-55
2023/05/18 02:03:57;;;;;;;5.07;2.57;;;;;;;;;;5071215;28;21110;-55
2023/05/18 02:06:23;;;;;;;4.10;2.33;;;;;;;;;;5071290;28;20437;-56
2023/05/18 02:08:50;;;;;;;4.77;2.23;;;;;;;;;;5071336;28;20687;-56
2023/05/18 02:11:16;;;;;;;4.23;2.57;;;;;;;;;;5071312;28;20936;-56
2023/05/18 02:13:42;;;;;;;4.37;2.80;;;;;;;;;;5071184;28;20495;-56
2023/05/18 02:16:09;;;;;;;5.77;2.53;;;;;;;;;;5071227;28;20667;-56
2023/05/18 02:18:37;;;;;;;3.13;2.50;;;;;;;;;;5071405;28;20206;-55
2023/05/18 02:21:03;;;;;;;5.40;2.90;;;;;;;;;;5074742;28;20207;-55
2023/05/18 02:23:30;;;;;;;3.30;2.27;;;;;;;;;;5075386;28;20908;-56
2023/05/18 02:25:56;;;;;;;6.07;2.53;;;;;;;;;;5075176;28;20426;-55
2023/05/18 02:28:22;;;;;;;5.83;2.57;;;;;;;;;;5075274;28;20195;-56
2023/05/18 02:30:48;;;;;;;5.20;2.93;;;;;;;;;;5075246;28;20471;-55
2023/05/18 02:33:14;;;;;;;5.27;2.40;;;;;;;;;;5075253;28;20191;-56
2023/05/18 02:35:41;;;;;;;6.07;2.50;;;;;;;;;;5074781;28;20539;-55
2023/05/18 02:38:07;;;;;;;3.83;2.40;;;;;;;;;;5075048;28;20303;-55
2023/05/18 02:40:33;;;;;;;4.40;2.43;;;;;;;;;;5075146;28;20462;-56
2023/05/18 02:42:59;;;;;;;5.87;2.43;;;;;;;;;;5074771;28;20665;-56
2023/05/18 02:45:25;;;;;;;6.23;2.53;;;;;;;;;;5075019;28;20437;-55
2023/05/18 02:47:51;;;;;;;3.77;2.37;;;;;;;;;;5075151;28;20258;-55
2023/05/18 02:50:17;;;;;;;5.17;2.80;;;;;;;;;;5074957;28;20196;-55
2023/05/18 02:52:44;;;;;;;3.47;2.63;;;;;;;;;;5074760;28;20222;-55
2023/05/18 02:55:12;;;;;;;3.47;2.23;;;;;;;;;;5074575;28;20480;-55
2023/05/18 02:57:38;;;;;;;6.53;2.43;;;;;;;;;;5074674;28;20441;-56
2023/05/18 03:00:10;;;;;;;4.63;2.30;;;;;;;;;;5074659;28;20936;-56
2023/05/18 03:02:37;;;;;;;6.20;2.47;;;;;;;;;;5074868;28;20200;-55
2023/05/18 03:05:04;;;;;;;3.93;2.17;;;;;;;;;;5074791;28;20818;-56
2023/05/18 03:07:31;;;;;;;3.60;2.00;;;;;;;;;;5074626;28;20425;-57
2023/05/18 03:09:59;;;;;;;3.80;2.20;;;;;;;;;;5074323;28;20536;-55
2023/05/18 03:12:25;;;;;;;3.70;2.67;;;;;;;;;;5074384;28;20438;-55
2023/05/18 03:14:51;;;;;;;5.27;2.50;;;;;;;;;;5074367;28;20553;-55
2023/05/18 03:17:17;;;;;;;3.83;2.43;;;;;;;;;;5074355;28;20199;-56
2023/05/18 03:19:43;;;;;;;4.90;2.60;;;;;;;;;;5074351;28;20199;-56
2023/05/18 03:22:09;;;;;;;3.03;2.20;;;;;;;;;;5074122;28;20195;-55
2023/05/18 03:24:39;;;;;;;6.60;2.73;;;;;;;;;;5074251;28;20191;-56
2023/05/18 03:27:06;;;;;;;3.00;2.27;;;;;;;;;;5073707;28;20200;-55
2023/05/18 03:29:33;;;;;;;6.43;2.73;;;;;;;;;;5073527;28;20547;-56
2023/05/18 03:31:59;;;;;;;5.73;2.70;;;;;;;;;;5073903;28;20528;-55
2023/05/18 03:34:25;;;;;;;3.67;2.63;;;;;;;;;;5073878;28;20438;-55
2023/05/18 03:36:53;;;;;;;3.93;2.40;;;;;;;;;;5073951;28;20452;-56
2023/05/18 03:39:20;;;;;;;2.93;2.40;;;;;;;;;;5073924;28;20666;-55
2023/05/18 03:41:46;;;;;;;8.17;2.43;;;;;;;;;;5073965;28;20442;-56
2023/05/18 03:44:13;;;;;;;4.33;2.40;;;;;;;;;;5073647;28;20507;-55
2023/05/18 03:46:39;;;;;;;7.03;3.00;;;;;;;;;;5073824;28;20434;-56
2023/05/18 03:49:06;;;;;;;4.53;3.13;;;;;;;;;;5073876;28;20513;-56
2023/05/18 03:51:32;;;;;;;3.27;2.80;;;;;;;;;;5073816;28;20433;-55
2023/05/18 03:53:58;;;;;;;5.43;3.10;;;;;;;;;;5073619;28;20442;-56
2023/05/18 03:56:25;;;;;;;5.33;2.83;;;;;;;;;;5073653;28;20473;-55
2023/05/18 03:58:51;;;;;;;5.53;3.07;;;;;;;;;;5073550;28;20748;-55
2023/05/18 04:01:18;;;;;;;8.17;2.70;;;;;;;;;;5073634;28;20537;-55
2023/05/18 04:03:44;;;;;;;4.37;2.70;;;;;;;;;;5073408;28;20224;-55
2023/05/18 04:06:10;;;;;;;4.23;2.80;;;;;;;;;;5073260;28;20995;-56
2023/05/18 04:08:36;;;;;;;4.90;3.43;;;;;;;;;;5073475;28;20526;-55
2023/05/18 04:11:03;;;;;;;6.20;3.20;;;;;;;;;;5073352;28;20210;-55
2023/05/18 04:13:29;;;;;;;4.83;3.17;;;;;;;;;;5073198;28;20453;-55
2023/05/18 04:15:57;;;;;;;5.33;2.83;;;;;;;;;;5073135;28;20465;-55
2023/05/18 04:18:26;;;;;;;6.20;3.37;;;;;;;;;;5073355;28;20530;-55
2023/05/18 04:20:54;;;;;;;3.40;2.93;;;;;;;;;;5073421;28;20462;-55
2023/05/18 04:23:20;;;;;;;5.80;3.27;;;;;;;;;;5073163;28;20430;-56
2023/05/18 04:25:46;;;;;;;5.17;3.10;;;;;;;;;;5073050;28;20453;-55
2023/05/18 04:28:12;;;;;;;6.20;2.80;;;;;;;;;;5072769;28;20786;-55
2023/05/18 04:30:38;;;;;;;3.87;2.70;;;;;;;;;;5073338;28;20203;-55
2023/05/18 04:33:05;;;;;;;2.97;2.50;;;;;;;;;;5072961;28;20200;-55
2023/05/18 04:35:32;;;;;;;5.03;2.70;;;;;;;;;;5072597;28;20231;-56
2023/05/18 04:37:58;;;;;;;4.93;3.13;;;;;;;;;;5072908;28;20214;-55
2023/05/18 04:40:24;;;;;;;5.20;2.90;;;;;;;;;;5072789;28;20199;-56
2023/05/18 04:42:50;;;;;;;5.13;2.97;;;;;;;;;;5072253;28;20216;-56
2023/05/18 04:45:18;;;;;;;4.87;2.70;;;;;;;;;;5072515;28;20199;-55
2023/05/18 04:47:45;;;;;;;4.70;2.47;;;;;;;;;;5072644;28;20887;-55
2023/05/18 04:50:11;;;;;;;4.67;2.70;;;;;;;;;;5072382;28;20238;-56
2023/05/18 04:52:40;;;;;;;3.80;2.37;;;;;;;;;;5072864;28;20261;-55
2023/05/18 04:55:09;;;;;;;4.87;2.73;;;;;;;;;;5072403;28;20280;-56
2023/05/18 04:57:35;;;;;;;5.53;2.57;;;;;;;;;;5072477;28;20679;-55
2023/05/18 05:00:04;;;;;;;4.27;2.77;;;;;;;;;;5072289;28;20199;-56
2023/05/18 05:02:30;;;;;;;4.43;2.93;;;;;;;;;;5072449;28;20214;-56
2023/05/18 05:04:56;;;;;;;4.43;2.80;;;;;;;;;;5072184;28;20311;-55
2023/05/18 05:07:22;;;;;;;6.10;2.63;;;;;;;;;;5072212;28;20312;-55
2023/05/18 05:09:49;;;;;;;5.17;3.03;;;;;;;;;;5072326;28;20207;-55
2023/05/18 05:12:15;;;;;;;3.63;2.50;;;;;;;;;;5072019;28;20219;-56
2023/05/18 05:14:41;;;;;;;5.80;2.63;;;;;;;;;;5072063;28;20247;-56
2023/05/18 05:17:07;;;;;;;5.80;2.80;;;;;;;;;;5072093;28;20278;-56
2023/05/18 05:19:33;;;;;;;4.30;2.50;;;;;;;;;;5072197;28;20586;-56
2023/05/18 05:21:59;;;;;;;4.43;2.20;;;;;;;;;;5071742;28;20207;-55
2023/05/18 05:24:25;;;;;;;6.77;3.20;;;;;;;;;;5071853;28;20277;-56
2023/05/18 05:26:53;;;;;;;4.83;2.60;;;;;;;;;;5071895;28;20686;-56
2023/05/18 05:29:19;;;;;;;3.43;2.40;;;;;;;;;;5071703;28;20218;-57
2023/05/18 05:31:45;;;;;;;6.93;2.27;;;;;;;;;;5071609;28;20753;-56
2023/05/18 05:34:12;;;;;;;4.50;2.47;;;;;;;;;;5071647;28;20308;-56
2023/05/18 05:36:38;;;;;;;4.03;2.40;;;;;;;;;;5071404;28;20296;-54
2023/05/18 05:39:04;;;;;;;5.53;2.50;;;;;;;;;;5071614;28;20634;-54
2023/05/18 05:41:30;;;;;;;3.40;2.30;;;;;;;;;;5071635;28;20290;-56
2023/05/18 05:43:57;;;;;;;5.63;2.50;;;;;;;;;;5071521;28;20287;-56
2023/05/18 05:46:24;;;;;;;4.97;2.20;;;;;;;;;;5071608;28;20211;-56
2023/05/18 05:48:49;;;;;;;6.53;2.53;;;;;;;;;;5071766;28;20199;-56
2023/05/18 05:51:16;;;;;;;3.80;2.10;;;;;;;;;;5071487;28;20183;-56
2023/05/18 05:53:42;;;;;;;5.17;2.20;;;;;;;;;;5071278;28;20222;-56
2023/05/18 05:56:09;;;;;;;5.03;2.50;;;;;;;;;;5071042;28;20227;-56
2023/05/18 05:58:35;;;;;;;4.47;2.20;;;;;;;;;;5071622;28;20286;-56
2023/05/18 06:01:03;;;;;;;6.43;2.50;;;;;;;;;;5071327;28;20741;-56
2023/05/18 06:03:30;;;;;;;7.67;2.70;;;;;;;;;;5071403;28;20223;-56
2023/05/18 06:05:56;;;;;;;3.63;1.93;;;;;;;;;;5071375;28;20196;-56
2023/05/18 06:08:23;;;;;;;6.53;2.43;;;;;;;;;;5071500;28;20187;-56
2023/05/18 06:10:50;;;;;;;4.07;2.10;;;;;;;;;;5071387;28;20203;-56
2023/05/18 06:13:16;;;;;;;4.77;2.20;;;;;;;;;;5071171;28;20282;-56
2023/05/18 06:15:42;;;;;;;5.30;2.07;;;;;;;;;;5071199;28;20306;-56
2023/05/18 06:18:09;;;;;;;3.60;2.00;;;;;;;;;;5071341;28;20659;-57
2023/05/18 06:20:35;;;;;;;7.33;2.37;;;;;;;;;;5071409;28;20199;-56
2023/05/18 06:23:01;;;;;;;6.67;2.20;;;;;;;;;;5071202;28;20679;-56
2023/05/18 06:25:27;;;;;;;5.67;2.20;;;;;;;;;;5071098;28;20192;-56
2023/05/18 06:27:53;;;;;;;5.53;2.30;;;;;;;;;;5071148;28;20229;-56
2023/05/18 06:30:19;;;;;;;3.57;2.00;;;;;;;;;;5070918;28;20191;-56
2023/05/18 06:32:45;;;;;;;5.40;1.77;;;;;;;;;;5071048;28;20708;-56
2023/05/18 06:35:13;;;;;;;6.07;2.20;;;;;;;;;;5071014;28;20613;-56
2023/05/18 06:37:39;;;;;;;4.67;1.77;;;;;;;;;;5070935;28;20857;-56
2023/05/18 06:40:06;;;;;;;8.17;2.10;;;;;;;;;;5071108;28;20286;-55
2023/05/18 06:42:32;;;;;;;4.70;2.10;;;;;;;;;;5070905;28;20559;-56
2023/05/18 06:44:58;;;;;;;5.03;1.90;;;;;;;;;;5071030;28;20256;-55
2023/05/18 06:47:24;;;;;;;4.37;1.80;;;;;;;;;;5070931;28;20200;-55
2023/05/18 06:49:50;;;;;;;5.43;1.87;;;;;;;;;;5071405;28;20200;-55
2023/05/18 06:52:17;;;;;;;6.30;2.33;;;;;;;;;;5070884;28;20203;-56
2023/05/18 06:54:43;;;;;;;5.53;2.10;;;;;;;;;;5070845;28;20206;-56
2023/05/18 06:57:09;;;;;;;4.03;2.13;;;;;;;;;;5070737;28;20204;-56
2023/05/18 06:59:35;;;;;;;4.33;1.80;;;;;;;;;;5071000;28;20207;-56
2023/05/18 07:02:02;;;;;;;4.57;1.60;;;;;;;;;;5070825;28;20199;-56
2023/05/18 07:04:28;;;;;;;7.67;2.13;;;;;;;;;;5070501;28;20225;-56
2023/05/18 07:06:54;;;;;;;4.93;1.80;;;;;;;;;;5073669;28;20651;-55
2023/05/18 07:09:22;;;;;;;5.53;2.30;;;;;;;;;;5074645;28;20200;-55
2023/05/18 07:11:48;;;;;;;6.00;2.30;;;;;;;;;;5074329;28;20619;-55
2023/05/18 07:14:14;;;;;;;3.93;1.90;;;;;;;;;;5074300;28;20720;-56
2023/05/18 07:16:40;;;;;;;8.17;1.97;;;;;;;;;;5074297;28;20226;-55
2023/05/18 07:19:06;;;;;;;6.47;2.00;;;;;;;;;;5074407;28;20242;-55
2023/05/18 07:21:33;;;;;;;5.90;2.40;;;;;;;;;;5074312;28;20198;-55
2023/05/18 07:23:59;;;;;;;4.43;2.13;;;;;;;;;;5074150;28;20203;-55
2023/05/18 07:26:26;;;;;;;3.47;2.00;;;;;;;;;;5073899;28;20733;-55
2023/05/18 07:28:52;;;;;;;4.87;2.20;;;;;;;;;;5074276;28;20202;-55
2023/05/18 07:31:20;;;;;;;6.27;2.10;;;;;;;;;;5073998;28;20208;-55
2023/05/18 07:33:49;;;;;;;4.10;2.33;;;;;;;;;;5074025;28;20195;-55
2023/05/18 07:36:15;;;;;;;4.83;1.90;;;;;;;;;;5073732;28;20239;-55
2023/05/18 07:38:41;;;;;;;5.77;1.77;;;;;;;;;;5074139;28;20605;-55
2023/05/18 07:41:07;;;;;;;7.13;1.90;;;;;;;;;;5073934;28;20585;-55
2023/05/18 07:43:35;;;;;;;4.50;1.80;;;;;;;;;;5073792;28;20243;-56
2023/05/18 07:46:01;;;;;;;4.97;2.10;;;;;;;;;;5074079;28;20604;-55
2023/05/18 07:48:27;;;;;;;4.17;2.20;;;;;;;;;;5073719;28;20203;-54
2023/05/18 07:50:53;;;;;;;6.17;2.50;;;;;;;;;;5073895;28;20207;-55
2023/05/18 07:53:19;;;;;;;6.37;2.40;;;;;;;;;;5073703;28;20740;-54
2023/05/18 07:55:45;;;;;;;3.57;1.97;;;;;;;;;;5073592;28;20223;-53
2023/05/18 07:58:12;;;;;;;5.47;2.13;;;;;;;;;;5073443;28;20196;-56
2023/05/18 08:00:39;;;;;;;5.17;2.30;;;;;;;;;;5073681;28;20199;-56
2023/05/18 08:03:05;;;;;;;6.10;2.20;;;;;;;;;;5073636;28;20206;-53
2023/05/18 08:05:31;;;;;;;4.37;2.33;;;;;;;;;;5073223;28;20218;-54
2023/05/18 08:07:58;;;;;;;4.33;1.90;;;;;;;;;;5073401;28;20515;-55
2023/05/18 08:10:24;;;;;;;4.40;1.90;;;;;;;;;;5073347;28;20195;-53
2023/05/18 08:12:50;;;;;;;4.60;2.03;;;;;;;;;;5073439;28;20245;-55
2023/05/18 08:15:16;;;;;;;4.93;1.90;;;;;;;;;;5073139;28;20222;-54
2023/05/18 08:17:43;;;;;;;8.83;2.57;;;;;;;;;;5072325;28;20243;-54
2023/05/18 08:20:10;;;;;;;3.70;2.23;;;;;;;;;;5073161;28;20290;-55
2023/05/18 08:22:36;;;;;;;3.17;1.83;;;;;;;;;;5073233;28;20566;-54
2023/05/18 08:25:02;;;;;;;6.30;2.20;;;;;;;;;;5073159;28;20196;-55
2023/05/18 08:27:29;;;;;;;4.23;2.17;;;;;;;;;;5072591;28;20344;-54
2023/05/18 08:29:55;;;;;;;6.00;2.23;;;;;;;;;;5072929;28;20211;-54
2023/05/18 08:32:21;;;;;;;4.03;1.90;;;;;;;;;;5072873;28;20207;-54
2023/05/18 08:34:50;;;;;;;4.67;2.37;;;;;;;;;;5072662;28;20324;-55
2023/05/18 08:37:16;;;;;;;3.57;2.27;;;;;;;;;;5072737;28;20212;-54
2023/05/18 08:39:44;;;;;;;5.43;2.17;;;;;;;;;;5072871;28;20265;-55
2023/05/18 08:42:15;;;;;;;7.70;2.00;;;;;;;;;;5072574;28;20655;-55
2023/05/18 08:44:45;;;;;;;5.00;2.30;;;;;;;;;;5072724;28;20416;-56
2023/05/18 08:47:12;;;;;;;3.90;1.77;;;;;;;;;;5072559;28;20191;-54
2023/05/18 08:49:41;;;;;;;5.80;1.80;;;;;;;;;;5072560;28;20215;-54
2023/05/18 08:52:09;;;;;;;4.27;1.90;;;;;;;;;;5072672;28;20204;-54
2023/05/18 08:54:36;;;;;;;3.73;1.90;;;;;;;;;;5072577;28;20205;-55
2023/05/18 08:57:04;;;;;;;4.30;2.17;;;;;;;;;;5072238;28;20221;-54
2023/05/18 08:59:31;;;;;;;3.23;2.00;;;;;;;;;;5072275;28;20203;-54
2023/05/18 09:01:57;;;;;;;4.23;2.00;;;;;;;;;;5072378;28;20202;-54
2023/05/18 09:04:24;;;;;;;5.60;2.40;;;;;;;;;;5072144;28;20219;-54
2023/05/18 09:06:51;;;;;;;4.83;2.63;;;;;;;;;;5072375;28;20238;-54
2023/05/18 09:09:18;;;;;;;6.03;2.20;;;;;;;;;;5072213;28;20192;-54
2023/05/18 09:11:46;;;;;;;4.50;2.10;;;;;;;;;;5072043;28;20583;-54
2023/05/18 09:14:12;;;;;;;6.53;2.50;;;;;;;;;;5072360;28;20203;-54
2023/05/18 09:16:38;;;;;;;4.90;2.07;;;;;;;;;;5071903;28;20228;-55
2023/05/18 09:19:04;;;;;;;4.03;2.00;;;;;;;;;;5072154;28;20199;-54
2023/05/18 09:21:31;;;;;;;4.80;2.27;;;;;;;;;;5071842;28;20205;-54
2023/05/18 09:23:58;;;;;;;5.03;2.33;;;;;;;;;;5071645;28;20278;-54
2023/05/18 09:26:26;;;;;;;4.80;1.87;;;;;;;;;;5071771;28;20249;-54
2023/05/18 09:28:52;;;;;;;3.90;1.80;;;;;;;;;;5071766;28;20644;-53
2023/05/18 09:31:20;;;;;;;5.03;1.90;;;;;;;;;;5071595;28;20203;-53
2023/05/18 09:33:47;;;;;;;4.33;2.20;;;;;;;;;;5071611;28;20286;-54
2023/05/18 09:36:16;;;;;;;6.93;2.10;;;;;;;;;;5071421;28;20242;-54
2023/05/18 09:38:44;;;;;;;3.93;1.83;;;;;;;;;;5071661;28;20234;-55
2023/05/18 09:41:11;;;;;;;8.40;2.27;;;;;;;;;;5071680;28;20602;-55
2023/05/18 09:43:39;;;;;;;3.80;2.10;;;;;;;;;;5071565;28;20256;-55
2023/05/18 09:46:06;;;;;;;5.83;1.60;;;;;;;;;;5071726;28;20195;-55
2023/05/18 09:48:32;;;;;;;4.63;2.07;;;;;;;;;;5071699;28;20222;-54
2023/05/18 09:50:58;;;;;;;6.17;2.23;;;;;;;;;;5071516;28;20199;-55
2023/05/18 09:53:24;;;;;;;4.73;2.00;;;;;;;;;;5071477;28;20195;-55
2023/05/18 09:55:51;;;;;;;5.20;1.97;;;;;;;;;;5071413;28;20234;-55
2023/05/18 09:58:17;;;;;;;4.17;2.07;;;;;;;;;;5071403;28;20195;-56
2023/05/18 10:00:50;;;;;;;6.23;1.83;;;;;;;;;;5071381;28;20210;-56
2023/05/18 10:03:17;;;;;;;4.10;1.87;;;;;;;;;;5071321;28;20207;-56
2023/05/18 10:05:43;;;;;;;5.53;2.47;;;;;;;;;;5070942;28;20338;-56
2023/05/18 10:08:11;;;;;;;4.30;1.93;;;;;;;;;;5069628;28;20253;-56
2023/05/18 10:10:39;;;;;;;6.70;2.07;;;;;;;;;;5070987;28;20278;-56
2023/05/18 10:13:05;;;;;;;4.07;1.60;;;;;;;;;;5071214;28;20226;-56
2023/05/18 10:15:32;;;;;;;5.77;2.33;;;;;;;;;;5070983;28;20251;-56
2023/05/18 10:18:01;;;;;;;4.37;2.30;;;;;;;;;;5071056;28;20196;-56
2023/05/18 10:20:27;;;;;;;5.27;2.10;;;;;;;;;;5071072;28;20200;-56
2023/05/18 10:22:54;;;;;;;4.27;1.90;;;;;;;;;;5071281;28;20206;-55
2023/05/18 10:25:21;;;;;;;4.70;2.30;;;;;;;;;;5070862;28;20198;-56
2023/05/18 10:27:49;;;;;;;4.93;1.97;;;;;;;;;;5070822;28;20294;-55
2023/05/18 10:30:16;;;;;;;3.53;1.90;;;;;;;;;;5071210;28;20278;-56
2023/05/18 10:32:42;;;;;;;5.33;1.73;;;;;;;;;;5071176;28;20231;-56
2023/05/18 10:35:10;;;;;;;5.60;2.07;;;;;;;;;;5071399;28;20698;-56
2023/05/18 10:37:38;;;;;;;7.40;2.40;;;;;;;;;;5071420;28;20201;-55
2023/05/18 10:40:06;;;;;;;5.10;1.90;;;;;;;;;;5071472;28;20196;-56
2023/05/18 10:42:32;;;;;;;4.43;2.10;;;;;;;;;;5075248;28;20230;-55
2023/05/18 10:45:00;;;;;;;5.33;2.23;;;;;;;;;;5075402;28;20201;-55
2023/05/18 10:47:26;;;;;;;3.90;2.00;;;;;;;;;;5075346;28;20201;-55
2023/05/18 10:49:53;;;;;;;8.13;2.20;;;;;;;;;;5075383;28;20199;-55
2023/05/18 10:52:20;;;;;;;4.27;2.07;;;;;;;;;;5075289;28;20199;-56
2023/05/18 10:54:47;;;;;;;3.90;2.20;;;;;;;;;;5075012;28;20208;-56
2023/05/18 10:57:15;;;;;;;4.37;2.13;;;;;;;;;;5074499;28;20289;-56
2023/05/18 10:59:42;;;;;;;5.60;2.30;;;;;;;;;;5074957;28;20247;-55
2023/05/18 11:02:08;;;;;;;3.97;2.00;;;;;;;;;;5074674;28;20195;-56
2023/05/18 11:04:34;;;;;;;3.47;1.90;;;;;;;;;;5074834;28;20302;-56
2023/05/18 11:07:01;;;;;;;6.83;2.00;;;;;;;;;;5074614;28;20275;-55
2023/05/18 11:09:29;;;;;;;3.93;2.00;;;;;;;;;;5074635;28;20278;-55
2023/05/18 11:11:56;;;;;;;4.47;2.17;;;;;;;;;;5074369;28;20275;-55
2023/05/18 11:14:26;;;;;;;5.50;2.30;;;;;;;;;;5074570;28;20279;-55
2023/05/18 11:16:52;;;;;;;6.07;2.50;;;;;;;;;;5074733;28;20236;-55
2023/05/18 11:19:19;;;;;;;5.47;2.33;;;;;;;;;;5074652;28;20603;-55
2023/05/18 11:21:52;;;;;;;5.73;2.10;;;;;;;;;;5074400;28;20201;-55
2023/05/18 11:24:20;;;;;;;3.80;2.00;;;;;;;;;;5074731;28;20196;-56
2023/05/18 11:26:48;;;;;;;7.13;4.00;;;;;;;;;;5074184;28;20215;-55
2023/05/18 11:29:18;;;;;;;5.03;2.20;;;;;;;;;;5074452;28;20197;-55
2023/05/18 11:31:44;;;;;;;5.10;2.27;;;;;;;;;;5074178;28;20197;-55
2023/05/18 11:34:29;;;;;;;5.80;2.63;;;;;;;;;;5074221;28;20205;-55
2023/05/18 11:36:55;;;;;;;5.47;2.33;;;;;;;;;;5074172;28;20307;-55
2023/05/18 11:39:23;;;;;;;6.20;1.90;;;;;;;;;;5073384;28;20211;-54
2023/05/18 11:41:58;;;;;;;4.43;2.10;;;;;;;;;;5074156;28;20295;-55
2023/05/18 11:44:27;;;;;;;4.73;2.20;;;;;;;;;;5074069;28;20215;-54
2023/05/18 11:46:54;;;;;;;4.80;1.93;;;;;;;;;;5074133;28;20690;-54
2023/05/18 11:49:21;;;;;;;6.60;2.33;;;;;;;;;;5074090;28;20243;-54
2023/05/18 11:52:00;;;;;;;4.80;2.00;;;;;;;;;;5072905;28;20206;-55
2023/05/18 11:54:26;;;;;;;6.60;2.37;;;;;;;;;;5074038;28;20205;-55
2023/05/18 11:56:53;;;;;;;4.60;2.10;;;;;;;;;;5073812;28;20222;-55
2023/05/18 11:59:30;;;;;;;4.50;1.97;;;;;;;;;;5073937;28;20247;-55
2023/05/18 12:01:57;;;;;;;6.03;2.30;;;;;;;;;;5073684;28;20206;-55
2023/05/18 12:04:23;;;;;;;5.27;2.13;;;;;;;;;;5073799;28;20225;-55
2023/05/18 12:06:50;;;;;;;4.87;1.80;;;;;;;;;;5073756;28;20195;-55
2023/05/18 12:09:17;;;;;;;5.57;2.17;;;;;;;;;;5073631;28;20205;-55
2023/05/18 12:11:43;;;;;;;5.07;2.20;;;;;;;;;;5073362;28;20282;-55
2023/05/18 12:14:09;;;;;;;4.00;2.10;;;;;;;;;;5073434;28;20201;-55
2023/05/18 12:16:37;;;;;;;4.77;2.10;;;;;;;;;;5073343;28;20614;-55
2023/05/18 12:19:03;;;;;;;6.67;2.40;;;;;;;;;;5073660;28;20201;-55
2023/05/18 12:21:29;;;;;;;7.10;2.43;;;;;;;;;;5073163;28;20201;-55
2023/05/18 12:23:58;;;;;;;2.27;1.70;;;;;;;;;;5073258;28;20203;-55
2023/05/18 12:26:24;;;;;;;3.77;2.13;;;;;;;;;;5073403;28;20259;-55
2023/05/18 12:28:51;;;;;;;5.30;2.00;;;;;;;;;;5073959;28;20236;-55
2023/05/18 12:31:17;;;;;;;4.70;2.20;;;;;;;;;;5073102;28;20225;-55
2023/05/18 12:33:44;;;;;;;4.93;2.20;;;;;;;;;;5073071;28;20820;-55
2023/05/18 12:36:10;;;;;;;4.57;2.30;;;;;;;;;;5072947;28;20244;-55
2023/05/18 12:38:36;;;;;;;3.40;1.80;;;;;;;;;;5073404;28;20573;-55
2023/05/18 12:41:02;;;;;;;4.83;2.00;;;;;;;;;;5073020;28;20261;-55
2023/05/18 12:43:33;;;;;;;3.60;1.87;;;;;;;;;;5073058;28;20197;-55
2023/05/18 12:46:00;;;;;;;3.47;2.03;;;;;;;;;;5072913;28;20197;-55
2023/05/18 12:48:26;;;;;;;6.90;2.60;;;;;;;;;;5072849;28;20296;-55
2023/05/18 12:50:54;;;;;;;4.43;2.30;;;;;;;;;;5070730;28;20656;-55
2023/05/18 12:53:20;;;;;;;3.47;1.70;;;;;;;;;;5072769;28;20749;-55
2023/05/18 12:55:56;;;;;;;5.50;2.13;;;;;;;;;;5072902;28;20554;-55
2023/05/18 12:58:22;;;;;;;4.77;1.93;;;;;;;;;;5066716;28;20284;-55
2023/05/18 13:00:48;;;;;;;3.50;2.10;;;;;;;;;;5072479;28;20268;-55
2023/05/18 13:03:15;;;;;;;3.77;2.00;;;;;;;;;;5072152;28;20304;-55
2023/05/18 13:05:43;;;;;;;3.73;2.00;;;;;;;;;;5072057;28;20670;-56
2023/05/18 13:08:13;;;;;;;6.63;2.00;;;;;;;;;;5072135;28;20202;-56
2023/05/18 13:10:39;;;;;;;5.80;2.33;;;;;;;;;;5071890;28;20212;-55
2023/05/18 13:13:05;;;;;;;4.13;2.27;;;;;;;;;;5068839;28;20213;-55
2023/05/18 13:15:35;;;;;;;4.87;1.87;;;;;;;;;;5052109;28;20222;-55
2023/05/18 13:18:02;;;;;;;3.97;2.10;;;;;;;;;;5051717;28;20293;-55
2023/05/18 13:20:33;;;;;;;3.77;1.73;;;;;;;;;;5052199;28;20282;-55
2023/05/18 13:23:01;;;;;;;5.17;2.03;;;;;;;;;;5048548;28;20204;-53
2023/05/18 13:25:28;;;;;;;5.67;2.20;;;;;;;;;;5052208;28;20201;-52
2023/05/18 13:27:54;;;;;;;4.13;2.00;;;;;;;;;;5052001;28;20207;-56
2023/05/18 13:30:21;;;;;;;3.00;1.43;;;;;;;;;;5052312;28;20230;-55
2023/05/18 13:32:47;;;;;;;4.63;1.90;;;;;;;;;;5052088;28;20261;-56
2023/05/18 13:35:13;;;;;;;4.97;2.07;;;;;;;;;;5051761;28;20247;-55
2023/05/18 13:37:40;;;;;;;4.33;1.97;;;;;;;;;;5051892;28;20206;-55
2023/05/18 13:40:07;;;;;;;3.73;1.90;;;;;;;;;;5052233;28;20265;-55
2023/05/18 13:42:34;;;;;;;5.57;2.37;;;;;;;;;;5052014;28;20202;-56
2023/05/18 13:45:01;;;;;;;4.83;2.13;;;;;;;;;;5051819;28;20203;-56
2023/05/18 13:47:27;;;;;;;5.07;2.23;;;;;;;;;;5051950;28;20624;-53
2023/05/18 13:49:53;;;;;;;3.53;1.87;;;;;;;;;;5051754;28;20295;-56
2023/05/18 13:52:19;;;;;;;3.30;1.67;;;;;;;;;;5051955;28;20195;-56
2023/05/18 13:54:45;;;;;;;5.57;2.30;;;;;;;;;;5051663;28;20234;-56
2023/05/18 13:57:11;;;;;;;6.00;2.00;;;;;;;;;;5051506;28;20223;-56
2023/05/18 13:59:38;;;;;;;4.53;2.10;;;;;;;;;;5051597;28;20218;-55
2023/05/18 14:05:16;;;;;;;5.20;2.10;;;;;;;;;;5036229;28;20336;-55
2023/05/18 14:07:42;;;;;;;3.67;2.00;;;;;;;;;;5050982;28;20218;-55
2023/05/18 14:10:09;;;;;;;4.00;1.80;;;;;;;;;;5051159;28;20210;-55
2023/05/18 14:12:35;;;;;;;5.37;2.23;;;;;;;;;;5051464;28;20201;-55
2023/05/18 14:15:03;;;;;;;4.23;2.10;;;;;;;;;;5050138;28;20255;-54
2023/05/18 14:17:29;;;;;;;7.63;2.40;;;;;;;;;;5050965;28;20221;-55
2023/05/18 14:19:56;;;;;;;5.60;2.07;;;;;;;;;;5050950;28;20276;-55
2023/05/18 14:22:22;;;;;;;5.30;2.43;;;;;;;;;;5051258;28;20200;-54
2023/05/18 14:24:48;;;;;;;7.43;2.40;;;;;;;;;;5050816;28;20609;-54
2023/05/18 14:27:14;;;;;;;5.67;2.00;;;;;;;;;;5050916;28;20200;-54
2023/05/18 14:29:40;;;;;;;4.07;1.80;;;;;;;;;;5050887;28;20243;-55
2023/05/18 14:32:08;;;;;;;3.93;2.03;;;;;;;;;;5050911;28;20198;-54
2023/05/18 14:34:34;;;;;;;3.23;1.93;;;;;;;;;;5050809;28;20201;-55
2023/05/18 14:37:00;;;;;;;4.70;1.90;;;;;;;;;;5050628;28;20237;-54
2023/05/18 14:39:26;;;;;;;7.60;2.83;;;;;;;;;;5050762;28;20228;-54
2023/05/18 14:41:52;;;;;;;3.07;1.80;;;;;;;;;;5050850;28;20229;-54
2023/05/18 14:44:18;;;;;;;4.90;1.87;;;;;;;;;;5050933;28;20281;-55